sensor_id;sensor_type;location;lat;lon;timestamp;P1;durP1;ratioP1;P2;durP2;ratioP2
26774;SDS011;14362;51.902;7.626;2023-07-22T00:00:20;14.35;;;11.48;;
26774;SDS011;14362;51.902;7.626;2023-07-22T00:04:23;12.68;;;11.40;;
26774;SDS011;14362;51.902;7.626;2023-07-22T00:08:27;14.82;;;11.68;;
26774;SDS011;14362;51.902;7.626;2023-07-22T00:12:28;14.60;;;11.63;;
26774;SDS011;14362;51.902;7.626;2023-07-22T00:16:30;14.43;;;10.95;;
26774;SDS011;14362;51.902;7.626;2023-07-22T00:20:33;13.75;;;12.15;;
26774;SDS011;14362;51.902;7.626;2023-07-22T00:24:34;14.82;;;11.30;;
26774;SDS011;14362;51.902;7.626;2023-07-22T00:28:36;15.63;;;11.25;;
26774;SDS011;14362;51.902;7.626;2023-07-22T00:32:38;12.65;;;10.82;;
26774;SDS011;14362;51.902;7.626;2023-07-22T00:36:42;13.77;;;11.10;;
26774;SDS011;14362;51.902;7.626;2023-07-22T00:40:44;15.27;;;12.18;;
26774;SDS011;14362;51.902;7.626;2023-07-22T00:44:45;17.25;;;12.05;;
26774;SDS011;14362;51.902;7.626;2023-07-22T00:48:47;13.93;;;10.68;;
26774;SDS011;14362;51.902;7.626;2023-07-22T00:52:50;14.80;;;11.25;;
26774;SDS011;14362;51.902;7.626;2023-07-22T00:56:52;13.60;;;11.38;;
26774;SDS011;14362;51.902;7.626;2023-07-22T01:00:55;13.68;;;10.93;;
26774;SDS011;14362;51.902;7.626;2023-07-22T01:04:56;16.27;;;10.85;;
26774;SDS011;14362;51.902;7.626;2023-07-22T01:08:59;12.73;;;10.75;;
26774;SDS011;14362;51.902;7.626;2023-07-22T01:13:01;11.90;;;10.70;;
26774;SDS011;14362;51.902;7.626;2023-07-22T01:17:03;13.27;;;10.45;;
26774;SDS011;14362;51.902;7.626;2023-07-22T01:21:05;12.95;;;10.75;;
26774;SDS011;14362;51.902;7.626;2023-07-22T01:25:09;16.73;;;12.00;;
26774;SDS011;14362;51.902;7.626;2023-07-22T01:29:11;14.75;;;10.95;;
26774;SDS011;14362;51.902;7.626;2023-07-22T01:33:13;11.98;;;10.88;;
26774;SDS011;14362;51.902;7.626;2023-07-22T01:37:14;12.38;;;10.10;;
26774;SDS011;14362;51.902;7.626;2023-07-22T01:41:17;13.88;;;11.18;;
26774;SDS011;14362;51.902;7.626;2023-07-22T01:45:18;12.15;;;10.93;;
26774;SDS011;14362;51.902;7.626;2023-07-22T01:49:19;16.52;;;11.38;;
26774;SDS011;14362;51.902;7.626;2023-07-22T01:53:21;14.68;;;11.55;;
26774;SDS011;14362;51.902;7.626;2023-07-22T01:57:24;13.77;;;12.10;;
26774;SDS011;14362;51.902;7.626;2023-07-22T02:01:25;12.57;;;11.05;;
26774;SDS011;14362;51.902;7.626;2023-07-22T02:05:28;14.63;;;11.40;;
26774;SDS011;14362;51.902;7.626;2023-07-22T02:09:31;12.43;;;10.40;;
26774;SDS011;14362;51.902;7.626;2023-07-22T02:13:34;12.73;;;11.07;;
26774;SDS011;14362;51.902;7.626;2023-07-22T02:17:36;16.58;;;12.07;;
26774;SDS011;14362;51.902;7.626;2023-07-22T02:21:38;14.48;;;11.68;;
26774;SDS011;14362;51.902;7.626;2023-07-22T02:25:39;13.95;;;11.07;;
26774;SDS011;14362;51.902;7.626;2023-07-22T02:29:42;12.63;;;11.27;;
26774;SDS011;14362;51.902;7.626;2023-07-22T02:33:43;13.88;;;11.75;;
26774;SDS011;14362;51.902;7.626;2023-07-22T02:37:45;14.05;;;11.25;;
26774;SDS011;14362;51.902;7.626;2023-07-22T02:41:46;15.13;;;12.55;;
26774;SDS011;14362;51.902;7.626;2023-07-22T02:45:52;16.05;;;11.63;;
26774;SDS011;14362;51.902;7.626;2023-07-22T02:49:54;15.93;;;12.73;;
26774;SDS011;14362;51.902;7.626;2023-07-22T02:53:55;15.77;;;11.88;;
26774;SDS011;14362;51.902;7.626;2023-07-22T02:57:57;14.23;;;11.77;;
26774;SDS011;14362;51.902;7.626;2023-07-22T03:02:00;17.27;;;12.93;;
26774;SDS011;14362;51.902;7.626;2023-07-22T03:06:02;14.13;;;12.65;;
26774;SDS011;14362;51.902;7.626;2023-07-22T03:10:04;15.05;;;13.20;;
26774;SDS011;14362;51.902;7.626;2023-07-22T03:14:07;15.50;;;12.73;;
26774;SDS011;14362;51.902;7.626;2023-07-22T03:18:10;17.23;;;13.82;;
26774;SDS011;14362;51.902;7.626;2023-07-22T03:22:13;17.40;;;14.10;;
26774;SDS011;14362;51.902;7.626;2023-07-22T03:26:16;14.68;;;13.18;;
26774;SDS011;14362;51.902;7.626;2023-07-22T03:30:17;17.00;;;13.82;;
26774;SDS011;14362;51.902;7.626;2023-07-22T03:34:20;20.33;;;14.52;;
26774;SDS011;14362;51.902;7.626;2023-07-22T03:38:22;18.08;;;13.73;;
26774;SDS011;14362;51.902;7.626;2023-07-22T03:42:24;17.65;;;14.20;;
26774;SDS011;14362;51.902;7.626;2023-07-22T03:46:25;19.73;;;14.45;;
26774;SDS011;14362;51.902;7.626;2023-07-22T03:50:28;18.58;;;15.27;;
26774;SDS011;14362;51.902;7.626;2023-07-22T03:54:30;16.85;;;14.13;;
26774;SDS011;14362;51.902;7.626;2023-07-22T03:58:31;17.67;;;14.63;;
26774;SDS011;14362;51.902;7.626;2023-07-22T04:02:33;20.23;;;16.05;;
26774;SDS011;14362;51.902;7.626;2023-07-22T04:06:35;20.95;;;14.88;;
26774;SDS011;14362;51.902;7.626;2023-07-22T04:10:37;18.20;;;16.30;;
26774;SDS011;14362;51.902;7.626;2023-07-22T04:14:38;19.70;;;15.55;;
26774;SDS011;14362;51.902;7.626;2023-07-22T04:18:40;16.25;;;14.55;;
26774;SDS011;14362;51.902;7.626;2023-07-22T04:22:43;22.98;;;15.93;;
26774;SDS011;14362;51.902;7.626;2023-07-22T04:26:44;22.10;;;16.42;;
26774;SDS011;14362;51.902;7.626;2023-07-22T04:30:54;22.35;;;16.67;;
26774;SDS011;14362;51.902;7.626;2023-07-22T04:34:57;21.52;;;16.17;;
26774;SDS011;14362;51.902;7.626;2023-07-22T04:39:00;19.55;;;15.20;;
26774;SDS011;14362;51.902;7.626;2023-07-22T04:43:04;22.35;;;15.98;;
26774;SDS011;14362;51.902;7.626;2023-07-22T04:47:06;17.95;;;15.13;;
26774;SDS011;14362;51.902;7.626;2023-07-22T04:51:07;17.45;;;15.48;;
26774;SDS011;14362;51.902;7.626;2023-07-22T04:55:11;19.17;;;15.20;;
26774;SDS011;14362;51.902;7.626;2023-07-22T04:59:12;20.08;;;15.05;;
26774;SDS011;14362;51.902;7.626;2023-07-22T05:03:15;19.90;;;14.75;;
26774;SDS011;14362;51.902;7.626;2023-07-22T05:07:18;20.38;;;14.38;;
26774;SDS011;14362;51.902;7.626;2023-07-22T05:11:20;16.70;;;14.60;;
26774;SDS011;14362;51.902;7.626;2023-07-22T05:15:23;15.13;;;13.52;;
26774;SDS011;14362;51.902;7.626;2023-07-22T05:19:25;17.33;;;14.25;;
26774;SDS011;14362;51.902;7.626;2023-07-22T05:23:26;16.83;;;14.23;;
26774;SDS011;14362;51.902;7.626;2023-07-22T05:27:29;16.05;;;13.65;;
26774;SDS011;14362;51.902;7.626;2023-07-22T05:31:30;16.15;;;14.15;;
26774;SDS011;14362;51.902;7.626;2023-07-22T05:35:32;15.57;;;13.88;;
26774;SDS011;14362;51.902;7.626;2023-07-22T05:39:33;18.38;;;13.82;;
26774;SDS011;14362;51.902;7.626;2023-07-22T05:43:36;17.02;;;14.88;;
26774;SDS011;14362;51.902;7.626;2023-07-22T05:47:37;17.27;;;13.82;;
26774;SDS011;14362;51.902;7.626;2023-07-22T05:51:39;16.50;;;13.10;;
26774;SDS011;14362;51.902;7.626;2023-07-22T05:55:40;14.98;;;13.38;;
26774;SDS011;14362;51.902;7.626;2023-07-22T05:59:44;15.48;;;12.80;;
26774;SDS011;14362;51.902;7.626;2023-07-22T06:03:45;15.48;;;13.52;;
26774;SDS011;14362;51.902;7.626;2023-07-22T06:07:46;16.77;;;12.68;;
26774;SDS011;14362;51.902;7.626;2023-07-22T06:11:48;14.10;;;12.55;;
26774;SDS011;14362;51.902;7.626;2023-07-22T06:15:51;16.90;;;13.52;;
26774;SDS011;14362;51.902;7.626;2023-07-22T06:19:54;19.35;;;13.30;;
26774;SDS011;14362;51.902;7.626;2023-07-22T06:23:55;16.77;;;14.07;;
26774;SDS011;14362;51.902;7.626;2023-07-22T06:27:57;14.05;;;12.40;;
26774;SDS011;14362;51.902;7.626;2023-07-22T06:31:59;13.93;;;11.73;;
26774;SDS011;14362;51.902;7.626;2023-07-22T06:36:01;14.20;;;12.57;;
26774;SDS011;14362;51.902;7.626;2023-07-22T06:40:03;13.05;;;11.73;;
26774;SDS011;14362;51.902;7.626;2023-07-22T06:44:05;14.07;;;12.55;;
26774;SDS011;14362;51.902;7.626;2023-07-22T06:48:08;17.48;;;13.90;;
26774;SDS011;14362;51.902;7.626;2023-07-22T06:52:09;15.55;;;12.98;;
26774;SDS011;14362;51.902;7.626;2023-07-22T06:56:11;15.07;;;12.02;;
26774;SDS011;14362;51.902;7.626;2023-07-22T07:00:12;16.40;;;12.55;;
26774;SDS011;14362;51.902;7.626;2023-07-22T07:04:15;17.73;;;13.68;;
26774;SDS011;14362;51.902;7.626;2023-07-22T07:08:16;18.20;;;13.48;;
26774;SDS011;14362;51.902;7.626;2023-07-22T07:12:19;19.70;;;14.15;;
26774;SDS011;14362;51.902;7.626;2023-07-22T07:16:21;17.58;;;13.27;;
26774;SDS011;14362;51.902;7.626;2023-07-22T07:20:25;20.58;;;13.85;;
26774;SDS011;14362;51.902;7.626;2023-07-22T07:24:26;19.95;;;14.30;;
26774;SDS011;14362;51.902;7.626;2023-07-22T07:28:28;15.98;;;14.15;;
26774;SDS011;14362;51.902;7.626;2023-07-22T07:32:29;16.58;;;13.10;;
26774;SDS011;14362;51.902;7.626;2023-07-22T07:36:33;18.15;;;14.20;;
26774;SDS011;14362;51.902;7.626;2023-07-22T07:40:34;21.50;;;14.95;;
26774;SDS011;14362;51.902;7.626;2023-07-22T07:44:36;17.90;;;14.30;;
26774;SDS011;14362;51.902;7.626;2023-07-22T07:48:37;20.30;;;15.00;;
26774;SDS011;14362;51.902;7.626;2023-07-22T07:52:40;20.00;;;14.52;;
26774;SDS011;14362;51.902;7.626;2023-07-22T07:56:41;16.42;;;13.93;;
26774;SDS011;14362;51.902;7.626;2023-07-22T08:00:43;18.00;;;13.95;;
26774;SDS011;14362;51.902;7.626;2023-07-22T08:04:44;15.98;;;12.75;;
26774;SDS011;14362;51.902;7.626;2023-07-22T08:08:48;19.10;;;13.20;;
26774;SDS011;14362;51.902;7.626;2023-07-22T08:12:49;16.98;;;12.15;;
26774;SDS011;14362;51.902;7.626;2023-07-22T08:16:50;16.27;;;13.13;;
26774;SDS011;14362;51.902;7.626;2023-07-22T08:20:52;17.10;;;12.63;;
26774;SDS011;14362;51.902;7.626;2023-07-22T08:24:55;15.80;;;12.27;;
26774;SDS011;14362;51.902;7.626;2023-07-22T08:28:57;13.38;;;11.23;;
26774;SDS011;14362;51.902;7.626;2023-07-22T08:32:58;18.17;;;12.05;;
26774;SDS011;14362;51.902;7.626;2023-07-22T08:37:00;14.40;;;11.90;;
26774;SDS011;14362;51.902;7.626;2023-07-22T08:41:02;15.48;;;11.38;;
26774;SDS011;14362;51.902;7.626;2023-07-22T08:45:04;13.48;;;9.95;;
26774;SDS011;14362;51.902;7.626;2023-07-22T08:49:10;15.45;;;11.60;;
26774;SDS011;14362;51.902;7.626;2023-07-22T08:53:11;14.93;;;10.65;;
26774;SDS011;14362;51.902;7.626;2023-07-22T08:57:14;12.63;;;10.13;;
26774;SDS011;14362;51.902;7.626;2023-07-22T09:01:17;13.73;;;11.00;;
26774;SDS011;14362;51.902;7.626;2023-07-22T09:05:18;14.35;;;10.27;;
26774;SDS011;14362;51.902;7.626;2023-07-22T09:09:20;12.68;;;10.07;;
26774;SDS011;14362;51.902;7.626;2023-07-22T09:13:25;10.18;;;8.85;;
26774;SDS011;14362;51.902;7.626;2023-07-22T09:17:27;10.43;;;8.77;;
26774;SDS011;14362;51.902;7.626;2023-07-22T09:21:29;10.13;;;8.38;;
26774;SDS011;14362;51.902;7.626;2023-07-22T09:25:30;10.85;;;8.35;;
26774;SDS011;14362;51.902;7.626;2023-07-22T09:29:34;10.15;;;8.57;;
26774;SDS011;14362;51.902;7.626;2023-07-22T09:33:36;11.48;;;8.48;;
26774;SDS011;14362;51.902;7.626;2023-07-22T09:37:38;11.05;;;7.32;;
26774;SDS011;14362;51.902;7.626;2023-07-22T09:41:41;8.13;;;7.32;;
26774;SDS011;14362;51.902;7.626;2023-07-22T09:45:46;8.63;;;7.30;;
26774;SDS011;14362;51.902;7.626;2023-07-22T09:49:48;7.63;;;6.82;;
26774;SDS011;14362;51.902;7.626;2023-07-22T09:53:59;8.43;;;6.75;;
26774;SDS011;14362;51.902;7.626;2023-07-22T09:58:02;7.95;;;7.15;;
26774;SDS011;14362;51.902;7.626;2023-07-22T10:02:06;8.93;;;6.85;;
26774;SDS011;14362;51.902;7.626;2023-07-22T10:06:12;7.97;;;6.85;;
26774;SDS011;14362;51.902;7.626;2023-07-22T10:10:16;6.37;;;5.67;;
26774;SDS011;14362;51.902;7.626;2023-07-22T10:14:19;6.32;;;5.40;;
26774;SDS011;14362;51.902;7.626;2023-07-22T10:18:22;6.30;;;5.57;;
26774;SDS011;14362;51.902;7.626;2023-07-22T10:22:24;7.18;;;5.47;;
26774;SDS011;14362;51.902;7.626;2023-07-22T10:26:26;8.63;;;6.25;;
26774;SDS011;14362;51.902;7.626;2023-07-22T10:30:29;6.57;;;5.65;;
26774;SDS011;14362;51.902;7.626;2023-07-22T10:34:32;8.35;;;6.25;;
26774;SDS011;14362;51.902;7.626;2023-07-22T10:38:34;6.85;;;5.55;;
26774;SDS011;14362;51.902;7.626;2023-07-22T10:42:36;6.18;;;5.45;;
26774;SDS011;14362;51.902;7.626;2023-07-22T10:46:38;6.90;;;5.78;;
26774;SDS011;14362;51.902;7.626;2023-07-22T10:50:45;9.77;;;5.80;;
26774;SDS011;14362;51.902;7.626;2023-07-22T10:58:55;5.82;;;5.28;;
26774;SDS011;14362;51.902;7.626;2023-07-22T11:03:10;9.65;;;5.32;;
26774;SDS011;14362;51.902;7.626;2023-07-22T11:07:13;5.38;;;4.40;;
26774;SDS011;14362;51.902;7.626;2023-07-22T11:11:15;5.47;;;4.20;;
26774;SDS011;14362;51.902;7.626;2023-07-22T11:15:20;4.95;;;4.47;;
26774;SDS011;14362;51.902;7.626;2023-07-22T11:19:23;4.80;;;4.40;;
26774;SDS011;14362;51.902;7.626;2023-07-22T11:23:26;5.00;;;4.47;;
26774;SDS011;14362;51.902;7.626;2023-07-22T11:27:28;5.78;;;5.05;;
26774;SDS011;14362;51.902;7.626;2023-07-22T11:31:32;7.60;;;4.88;;
26774;SDS011;14362;51.902;7.626;2023-07-22T11:35:36;7.90;;;5.35;;
26774;SDS011;14362;51.902;7.626;2023-07-22T11:39:39;8.20;;;5.53;;
26774;SDS011;14362;51.902;7.626;2023-07-22T11:47:43;7.88;;;5.32;;
26774;SDS011;14362;51.902;7.626;2023-07-22T11:51:45;6.13;;;5.18;;
26774;SDS011;14362;51.902;7.626;2023-07-22T11:55:48;7.47;;;5.82;;
26774;SDS011;14362;51.902;7.626;2023-07-22T11:59:54;6.72;;;5.40;;
26774;SDS011;14362;51.902;7.626;2023-07-22T12:03:56;5.72;;;5.15;;
26774;SDS011;14362;51.902;7.626;2023-07-22T12:07:58;6.22;;;4.70;;
26774;SDS011;14362;51.902;7.626;2023-07-22T12:12:00;4.95;;;4.45;;
26774;SDS011;14362;51.902;7.626;2023-07-22T12:16:02;7.05;;;4.20;;
26774;SDS011;14362;51.902;7.626;2023-07-22T12:20:05;7.63;;;4.00;;
26774;SDS011;14362;51.902;7.626;2023-07-22T12:24:13;4.68;;;4.03;;
26774;SDS011;14362;51.902;7.626;2023-07-22T12:28:16;5.65;;;4.03;;
26774;SDS011;14362;51.902;7.626;2023-07-22T12:32:17;6.70;;;4.50;;
26774;SDS011;14362;51.902;7.626;2023-07-22T12:36:19;4.47;;;4.07;;
26774;SDS011;14362;51.902;7.626;2023-07-22T12:40:20;4.30;;;3.90;;
26774;SDS011;14362;51.902;7.626;2023-07-22T12:44:23;5.63;;;3.75;;
26774;SDS011;14362;51.902;7.626;2023-07-22T12:48:24;5.13;;;3.95;;
26774;SDS011;14362;51.902;7.626;2023-07-22T12:52:26;4.15;;;3.50;;
26774;SDS011;14362;51.902;7.626;2023-07-22T12:56:27;4.50;;;3.60;;
26774;SDS011;14362;51.902;7.626;2023-07-22T13:00:30;4.63;;;3.90;;
26774;SDS011;14362;51.902;7.626;2023-07-22T13:04:31;4.45;;;3.60;;
26774;SDS011;14362;51.902;7.626;2023-07-22T13:08:33;5.63;;;4.03;;
26774;SDS011;14362;51.902;7.626;2023-07-22T13:12:34;3.65;;;3.20;;
26774;SDS011;14362;51.902;7.626;2023-07-22T13:16:37;3.50;;;3.05;;
26774;SDS011;14362;51.902;7.626;2023-07-22T13:20:39;3.78;;;3.00;;
26774;SDS011;14362;51.902;7.626;2023-07-22T13:24:40;3.50;;;3.20;;
26774;SDS011;14362;51.902;7.626;2023-07-22T13:28:42;4.10;;;2.95;;
26774;SDS011;14362;51.902;7.626;2023-07-22T13:32:44;3.22;;;2.63;;
26774;SDS011;14362;51.902;7.626;2023-07-22T13:36:46;3.20;;;2.70;;
26774;SDS011;14362;51.902;7.626;2023-07-22T13:40:47;3.05;;;2.72;;
26774;SDS011;14362;51.902;7.626;2023-07-22T13:44:50;3.53;;;2.63;;
26774;SDS011;14362;51.902;7.626;2023-07-22T13:48:52;3.03;;;2.45;;
26774;SDS011;14362;51.902;7.626;2023-07-22T13:52:54;2.97;;;2.70;;
26774;SDS011;14362;51.902;7.626;2023-07-22T13:56:55;4.43;;;2.90;;
26774;SDS011;14362;51.902;7.626;2023-07-22T14:00:57;2.88;;;2.67;;
26774;SDS011;14362;51.902;7.626;2023-07-22T14:04:59;3.38;;;2.60;;
26774;SDS011;14362;51.902;7.626;2023-07-22T14:09:01;3.03;;;2.30;;
26774;SDS011;14362;51.902;7.626;2023-07-22T14:13:03;5.38;;;2.42;;
26774;SDS011;14362;51.902;7.626;2023-07-22T14:17:05;2.72;;;2.03;;
26774;SDS011;14362;51.902;7.626;2023-07-22T14:21:08;2.88;;;2.55;;
26774;SDS011;14362;51.902;7.626;2023-07-22T14:25:11;4.13;;;1.90;;
26774;SDS011;14362;51.902;7.626;2023-07-22T14:29:12;5.97;;;2.28;;
26774;SDS011;14362;51.902;7.626;2023-07-22T14:33:14;4.78;;;2.15;;
26774;SDS011;14362;51.902;7.626;2023-07-22T14:37:17;2.78;;;2.20;;
26774;SDS011;14362;51.902;7.626;2023-07-22T14:41:18;4.30;;;2.05;;
26774;SDS011;14362;51.902;7.626;2023-07-22T14:45:20;2.15;;;1.95;;
26774;SDS011;14362;51.902;7.626;2023-07-22T14:49:21;3.67;;;2.58;;
26774;SDS011;14362;51.902;7.626;2023-07-22T14:53:24;3.03;;;2.25;;
26774;SDS011;14362;51.902;7.626;2023-07-22T14:57:26;4.43;;;2.00;;
26774;SDS011;14362;51.902;7.626;2023-07-22T15:01:36;3.60;;;2.25;;
26774;SDS011;14362;51.902;7.626;2023-07-22T15:05:37;4.35;;;2.25;;
26774;SDS011;14362;51.902;7.626;2023-07-22T15:09:40;2.38;;;2.17;;
26774;SDS011;14362;51.902;7.626;2023-07-22T15:13:41;3.60;;;2.55;;
26774;SDS011;14362;51.902;7.626;2023-07-22T15:17:43;3.08;;;2.38;;
26774;SDS011;14362;51.902;7.626;2023-07-22T15:21:44;2.95;;;2.63;;
26774;SDS011;14362;51.902;7.626;2023-07-22T15:25:48;3.63;;;2.22;;
26774;SDS011;14362;51.902;7.626;2023-07-22T15:29:49;2.80;;;2.30;;
26774;SDS011;14362;51.902;7.626;2023-07-22T15:33:51;2.85;;;2.38;;
26774;SDS011;14362;51.902;7.626;2023-07-22T15:37:52;3.20;;;2.53;;
26774;SDS011;14362;51.902;7.626;2023-07-22T15:41:55;3.03;;;2.38;;
26774;SDS011;14362;51.902;7.626;2023-07-22T15:45:57;4.63;;;2.38;;
26774;SDS011;14362;51.902;7.626;2023-07-22T15:49:59;5.60;;;2.63;;
26774;SDS011;14362;51.902;7.626;2023-07-22T15:54:00;3.72;;;2.35;;
26774;SDS011;14362;51.902;7.626;2023-07-22T15:58:03;2.03;;;1.90;;
26774;SDS011;14362;51.902;7.626;2023-07-22T16:02:05;3.17;;;2.33;;
26774;SDS011;14362;51.902;7.626;2023-07-22T16:06:07;2.70;;;2.38;;
26774;SDS011;14362;51.902;7.626;2023-07-22T16:10:08;3.92;;;2.40;;
26774;SDS011;14362;51.902;7.626;2023-07-22T16:14:11;3.00;;;2.70;;
26774;SDS011;14362;51.902;7.626;2023-07-22T16:18:13;3.50;;;2.30;;
26774;SDS011;14362;51.902;7.626;2023-07-22T16:22:14;4.82;;;2.13;;
26774;SDS011;14362;51.902;7.626;2023-07-22T16:26:19;3.47;;;2.20;;
26774;SDS011;14362;51.902;7.626;2023-07-22T16:30:22;3.67;;;2.80;;
26774;SDS011;14362;51.902;7.626;2023-07-22T16:34:24;2.45;;;2.20;;
26774;SDS011;14362;51.902;7.626;2023-07-22T16:38:25;3.53;;;2.00;;
26774;SDS011;14362;51.902;7.626;2023-07-22T16:42:26;2.28;;;2.03;;
26774;SDS011;14362;51.902;7.626;2023-07-22T16:46:29;2.80;;;2.42;;
26774;SDS011;14362;51.902;7.626;2023-07-22T16:50:31;2.55;;;2.33;;
26774;SDS011;14362;51.902;7.626;2023-07-22T16:54:33;3.08;;;2.38;;
26774;SDS011;14362;51.902;7.626;2023-07-22T16:58:34;3.47;;;2.17;;
26774;SDS011;14362;51.902;7.626;2023-07-22T17:02:37;2.85;;;2.40;;
26774;SDS011;14362;51.902;7.626;2023-07-22T17:06:39;4.05;;;3.03;;
26774;SDS011;14362;51.902;7.626;2023-07-22T17:10:40;3.63;;;2.30;;
26774;SDS011;14362;51.902;7.626;2023-07-22T17:14:42;2.70;;;2.20;;
26774;SDS011;14362;51.902;7.626;2023-07-22T17:18:44;3.78;;;2.50;;
26774;SDS011;14362;51.902;7.626;2023-07-22T17:22:46;2.33;;;2.13;;
26774;SDS011;14362;51.902;7.626;2023-07-22T17:26:47;4.50;;;2.40;;
26774;SDS011;14362;51.902;7.626;2023-07-22T17:30:49;3.95;;;2.33;;
26774;SDS011;14362;51.902;7.626;2023-07-22T17:34:52;2.40;;;2.20;;
26774;SDS011;14362;51.902;7.626;2023-07-22T17:38:54;3.75;;;2.20;;
26774;SDS011;14362;51.902;7.626;2023-07-22T17:42:56;3.67;;;2.10;;
26774;SDS011;14362;51.902;7.626;2023-07-22T17:46:57;4.70;;;2.10;;
26774;SDS011;14362;51.902;7.626;2023-07-22T17:51:00;3.75;;;2.40;;
26774;SDS011;14362;51.902;7.626;2023-07-22T17:55:02;4.50;;;2.20;;
26774;SDS011;14362;51.902;7.626;2023-07-22T17:59:03;6.05;;;1.90;;
26774;SDS011;14362;51.902;7.626;2023-07-22T18:03:05;3.15;;;2.28;;
26774;SDS011;14362;51.902;7.626;2023-07-22T18:07:08;2.75;;;2.15;;
26774;SDS011;14362;51.902;7.626;2023-07-22T18:11:09;2.50;;;2.20;;
26774;SDS011;14362;51.902;7.626;2023-07-22T18:15:11;4.72;;;2.10;;
26774;SDS011;14362;51.902;7.626;2023-07-22T18:19:12;12.95;;;4.28;;
26774;SDS011;14362;51.902;7.626;2023-07-22T18:23:15;3.45;;;2.50;;
26774;SDS011;14362;51.902;7.626;2023-07-22T18:27:17;5.30;;;2.72;;
26774;SDS011;14362;51.902;7.626;2023-07-22T18:31:18;5.50;;;3.22;;
26774;SDS011;14362;51.902;7.626;2023-07-22T18:35:20;4.60;;;2.70;;
26774;SDS011;14362;51.902;7.626;2023-07-22T18:39:23;3.90;;;2.50;;
26774;SDS011;14362;51.902;7.626;2023-07-22T18:43:24;2.50;;;2.30;;
26774;SDS011;14362;51.902;7.626;2023-07-22T18:47:26;4.35;;;3.20;;
26774;SDS011;14362;51.902;7.626;2023-07-22T18:51:27;4.90;;;3.13;;
26774;SDS011;14362;51.902;7.626;2023-07-22T18:55:33;8.80;;;2.60;;
26774;SDS011;14362;51.902;7.626;2023-07-22T18:59:36;3.13;;;2.60;;
26774;SDS011;14362;51.902;7.626;2023-07-22T19:03:38;5.57;;;2.90;;
26774;SDS011;14362;51.902;7.626;2023-07-22T19:07:39;3.10;;;2.70;;
26774;SDS011;14362;51.902;7.626;2023-07-22T19:11:42;4.65;;;2.75;;
26774;SDS011;14362;51.902;7.626;2023-07-22T19:15:45;4.25;;;2.90;;
26774;SDS011;14362;51.902;7.626;2023-07-22T19:19:47;3.53;;;3.00;;
26774;SDS011;14362;51.902;7.626;2023-07-22T19:23:48;4.43;;;2.83;;
26774;SDS011;14362;51.902;7.626;2023-07-22T19:27:51;4.32;;;2.65;;
26774;SDS011;14362;51.902;7.626;2023-07-22T19:31:52;4.15;;;2.95;;
26774;SDS011;14362;51.902;7.626;2023-07-22T19:36:01;3.75;;;2.65;;
26774;SDS011;14362;51.902;7.626;2023-07-22T19:40:03;4.35;;;3.08;;
26774;SDS011;14362;51.902;7.626;2023-07-22T19:44:07;5.88;;;4.13;;
26774;SDS011;14362;51.902;7.626;2023-07-22T19:48:08;6.55;;;3.75;;
26774;SDS011;14362;51.902;7.626;2023-07-22T19:52:10;5.13;;;3.65;;
26774;SDS011;14362;51.902;7.626;2023-07-22T19:56:11;9.68;;;5.32;;
26774;SDS011;14362;51.902;7.626;2023-07-22T20:00:15;5.20;;;4.45;;
26774;SDS011;14362;51.902;7.626;2023-07-22T20:04:16;7.80;;;5.43;;
26774;SDS011;14362;51.902;7.626;2023-07-22T20:08:21;6.63;;;4.28;;
26774;SDS011;14362;51.902;7.626;2023-07-22T20:12:22;7.60;;;5.10;;
26774;SDS011;14362;51.902;7.626;2023-07-22T20:16:25;6.28;;;4.88;;
26774;SDS011;14362;51.902;7.626;2023-07-22T20:20:26;5.53;;;4.47;;
26774;SDS011;14362;51.902;7.626;2023-07-22T20:24:28;6.75;;;4.72;;
26774;SDS011;14362;51.902;7.626;2023-07-22T20:28:34;7.22;;;4.93;;
26774;SDS011;14362;51.902;7.626;2023-07-22T20:32:37;6.45;;;5.07;;
26774;SDS011;14362;51.902;7.626;2023-07-22T20:36:38;7.13;;;4.78;;
26774;SDS011;14362;51.902;7.626;2023-07-22T20:40:40;7.82;;;5.78;;
26774;SDS011;14362;51.902;7.626;2023-07-22T20:44:41;6.15;;;5.55;;
26774;SDS011;14362;51.902;7.626;2023-07-22T20:48:44;6.45;;;5.60;;
26774;SDS011;14362;51.902;7.626;2023-07-22T20:52:45;5.95;;;5.35;;
26774;SDS011;14362;51.902;7.626;2023-07-22T20:56:47;5.93;;;5.30;;
26774;SDS011;14362;51.902;7.626;2023-07-22T21:00:48;7.18;;;6.30;;
26774;SDS011;14362;51.902;7.626;2023-07-22T21:04:51;8.20;;;6.10;;
26774;SDS011;14362;51.902;7.626;2023-07-22T21:08:53;6.85;;;6.15;;
26774;SDS011;14362;51.902;7.626;2023-07-22T21:12:55;9.82;;;7.43;;
26774;SDS011;14362;51.902;7.626;2023-07-22T21:16:56;7.50;;;6.80;;
26774;SDS011;14362;51.902;7.626;2023-07-22T21:20:59;8.55;;;7.65;;
26774;SDS011;14362;51.902;7.626;2023-07-22T21:25:00;9.38;;;6.82;;
26774;SDS011;14362;51.902;7.626;2023-07-22T21:29:02;9.00;;;7.15;;
26774;SDS011;14362;51.902;7.626;2023-07-22T21:33:03;10.20;;;7.82;;
26774;SDS011;14362;51.902;7.626;2023-07-22T21:37:06;10.95;;;8.18;;
26774;SDS011;14362;51.902;7.626;2023-07-22T21:41:08;8.50;;;7.60;;
26774;SDS011;14362;51.902;7.626;2023-07-22T21:45:09;8.10;;;7.03;;
26774;SDS011;14362;51.902;7.626;2023-07-22T21:49:11;7.65;;;6.75;;
26774;SDS011;14362;51.902;7.626;2023-07-22T21:53:14;8.07;;;6.95;;
26774;SDS011;14362;51.902;7.626;2023-07-22T21:57:15;8.18;;;6.18;;
26774;SDS011;14362;51.902;7.626;2023-07-22T22:01:17;7.35;;;5.53;;
26774;SDS011;14362;51.902;7.626;2023-07-22T22:05:18;7.25;;;6.53;;
26774;SDS011;14362;51.902;7.626;2023-07-22T22:09:21;7.22;;;6.53;;
26774;SDS011;14362;51.902;7.626;2023-07-22T22:13:22;8.35;;;6.20;;
26774;SDS011;14362;51.902;7.626;2023-07-22T22:17:24;8.48;;;6.68;;
26774;SDS011;14362;51.902;7.626;2023-07-22T22:21:25;9.57;;;7.05;;
26774;SDS011;14362;51.902;7.626;2023-07-22T22:25:28;8.13;;;7.03;;
26774;SDS011;14362;51.902;7.626;2023-07-22T22:29:29;8.77;;;7.70;;
26774;SDS011;14362;51.902;7.626;2023-07-22T22:33:31;11.00;;;8.95;;
26774;SDS011;14362;51.902;7.626;2023-07-22T22:37:32;8.43;;;7.63;;
26774;SDS011;14362;51.902;7.626;2023-07-22T22:41:35;10.45;;;8.35;;
26774;SDS011;14362;51.902;7.626;2023-07-22T22:45:37;8.93;;;7.50;;
26774;SDS011;14362;51.902;7.626;2023-07-22T22:49:38;9.98;;;7.20;;
26774;SDS011;14362;51.902;7.626;2023-07-22T22:53:40;8.50;;;7.38;;
26774;SDS011;14362;51.902;7.626;2023-07-22T22:57:43;7.97;;;7.18;;
26774;SDS011;14362;51.902;7.626;2023-07-22T23:01:44;10.38;;;6.90;;
26774;SDS011;14362;51.902;7.626;2023-07-22T23:05:45;9.00;;;6.68;;
26774;SDS011;14362;51.902;7.626;2023-07-22T23:09:47;8.25;;;6.55;;
26774;SDS011;14362;51.902;7.626;2023-07-22T23:13:50;7.68;;;6.60;;
26774;SDS011;14362;51.902;7.626;2023-07-22T23:17:53;8.07;;;7.30;;
26774;SDS011;14362;51.902;7.626;2023-07-22T23:21:54;8.70;;;6.47;;
26774;SDS011;14362;51.902;7.626;2023-07-22T23:25:55;7.78;;;6.63;;
26774;SDS011;14362;51.902;7.626;2023-07-22T23:29:58;8.93;;;7.80;;
26774;SDS011;14362;51.902;7.626;2023-07-22T23:34:04;7.70;;;6.70;;
26774;SDS011;14362;51.902;7.626;2023-07-22T23:38:05;10.85;;;7.85;;
26774;SDS011;14362;51.902;7.626;2023-07-22T23:42:07;9.77;;;7.80;;
26774;SDS011;14362;51.902;7.626;2023-07-22T23:46:10;8.68;;;7.78;;
26774;SDS011;14362;51.902;7.626;2023-07-22T23:50:11;10.00;;;8.50;;
26774;SDS011;14362;51.902;7.626;2023-07-22T23:54:12;8.85;;;7.93;;
26774;SDS011;14362;51.902;7.626;2023-07-22T23:58:14;8.95;;;7.53;;
